Capt. Carl Page — WDC6538 — position and weather

sailwx.info

Track history (hours):
 
Tides and Currents Weather Stations Pressure Air Temp Water Temp Dewpoint Dewpoint Depression Visibility Wind Speed Wind Dir Waves Ship Positions

Capt. Carl Page

Owner: American Commercial Lines LLC, Jeffersonville, IN. More information available from US FCC via Universal Licensing System and Coast Guard Vessel Documentation Center.

Last reported at 2018-Feb-24 02:54 UTC. Time now 2018-Feb-25 17:35 UTC.
Position N 32°44' W 091°05'.

Length 55 m; draft 3.1 m.

Type: Towing. MMSI: 367057650.

Date/timePositionNaut miles runAvg speedWind from/ knotsBaromVisibWave heightAir tempDewpointWater temp
2018-Feb-24 02:54N 32°44' W 091°05'0 1.1
2018-Feb-24 02:29N 32°44' W 091°04'5 3.1
2018-Feb-24 00:50N 32°40' W 091°08'3 4.0
2018-Feb-24 00:12N 32°38' W 091°09'1 3.6
2018-Feb-24 00:00N 32°37' W 091°09'2 3.5
2018-Feb-23 23:30N 32°35' W 091°08'2 3.7
2018-Feb-23 23:01N 32°34' W 091°06'2 3.5
2018-Feb-23 22:31N 32°32' W 091°06'2 4.1
2018-Feb-23 22:01N 32°30' W 091°07'2 3.7
2018-Feb-23 21:30N 32°29' W 091°07'2 3.6
2018-Feb-23 21:01N 32°27' W 091°05'2 3.7
2018-Feb-23 20:30N 32°26' W 091°03'2 3.2
2018-Feb-23 20:01N 32°26' W 091°02'2 3.0
2018-Feb-23 19:30N 32°25' W 090°60'2 3.9
2018-Feb-23 19:01N 32°23' W 090°60'2 3.4
2018-Feb-23 18:31N 32°21' W 090°60'2 3.6
2018-Feb-23 18:01N 32°21' W 090°58'2 3.9
2018-Feb-23 17:30N 32°21' W 090°56'2 3.2
2018-Feb-23 17:00N 32°19' W 090°54'2 3.4
2018-Feb-23 16:30N 32°18' W 090°55'2 3.2
2018-Feb-23 16:01N 32°17' W 090°57'2 3.9
2018-Feb-23 15:30N 32°16' W 090°58'2 4.1
2018-Feb-23 15:00N 32°14' W 090°59'2 3.1
2018-Feb-23 14:31N 32°12' W 090°59'2 3.6
2018-Feb-23 14:00N 32°10' W 090°60'2 3.6
2018-Feb-23 13:30N 32°09' W 091°00'2 3.4
2018-Feb-23 13:01N 32°07' W 091°01'2 3.4
2018-Feb-23 12:19N 32°08' W 091°04'1 0.5
2018-Feb-23 10:32N 32°08' W 091°05'0 3.1
2018-Feb-23 10:28N 32°08' W 091°05'1 2.9
2018-Feb-23 10:00N 32°07' W 091°06'3 4.3
2018-Feb-23 09:16N 32°05' W 091°04'1 3.9
2018-Feb-23 09:01N 32°04' W 091°04'2 3.6
2018-Feb-23 08:30N 32°02' W 091°04'2 4.5
2018-Feb-23 07:58N 31°60' W 091°06'5 3.6
2018-Feb-23 06:41N 31°58' W 091°11'1 3.5
2018-Feb-23 06:30N 31°58' W 091°11'  
2018-Feb-17 12:03N 31°57' W 091°11'1 8.5
2018-Feb-17 11:53N 31°59' W 091°11'5 8.8
2018-Feb-17 11:22N 31°60' W 091°05'5 8.9
2018-Feb-17 10:51N 32°04' W 091°04'3 9.3
2018-Feb-17 10:29N 32°07' W 091°06'2 3.1
2018-Feb-17 09:57N 32°08' W 091°05'4 8.5
2018-Feb-17 09:30N 32°08' W 091°01'5 9.9
2018-Feb-17 09:01N 32°13' W 090°59'5 9.1
2018-Feb-17 08:30N 32°17' W 090°57'4 8.3
2018-Feb-17 08:01N 32°20' W 090°54'4 9.0
2018-Feb-17 07:31N 32°21' W 090°60'4 7.9
2018-Feb-17 07:00N 32°25' W 091°00'5 9.3
2018-Feb-17 06:30N 32°27' W 091°05'4 8.6
2018-Feb-17 06:00N 32°31' W 091°06'4 8.3
2018-Feb-17 05:30N 32°35' W 091°08'  
Track history (hours):
 
Tides and Currents Weather Stations Pressure Air Temp Water Temp Dewpoint Dewpoint Depression Visibility Wind Speed Wind Dir Waves Ship Positions

Capt. Carl Page

Owner: American Commercial Lines LLC, Jeffersonville, IN. More information available from US FCC via Universal Licensing System and Coast Guard Vessel Documentation Center.

Last reported at 2018-Feb-24 02:54 UTC. Time now 2018-Feb-25 17:35 UTC.
Position N 32°44' W 091°05'.

Length 55 m; draft 3.1 m.

Type: Towing. MMSI: 367057650.

Date/timePositionNaut miles runAvg speedWind from/ knotsBaromVisibWave heightAir tempDewpointWater temp
2018-Feb-24 02:54N 32°44' W 091°05'0 1.1
2018-Feb-24 02:29N 32°44' W 091°04'5 3.1
2018-Feb-24 00:50N 32°40' W 091°08'3 4.0
2018-Feb-24 00:12N 32°38' W 091°09'1 3.6
2018-Feb-24 00:00N 32°37' W 091°09'2 3.5
2018-Feb-23 23:30N 32°35' W 091°08'2 3.7
2018-Feb-23 23:01N 32°34' W 091°06'2 3.5
2018-Feb-23 22:31N 32°32' W 091°06'2 4.1
2018-Feb-23 22:01N 32°30' W 091°07'2 3.7
2018-Feb-23 21:30N 32°29' W 091°07'2 3.6
2018-Feb-23 21:01N 32°27' W 091°05'2 3.7
2018-Feb-23 20:30N 32°26' W 091°03'2 3.2
2018-Feb-23 20:01N 32°26' W 091°02'2 3.0
2018-Feb-23 19:30N 32°25' W 090°60'2 3.9
2018-Feb-23 19:01N 32°23' W 090°60'2 3.4
2018-Feb-23 18:31N 32°21' W 090°60'2 3.6
2018-Feb-23 18:01N 32°21' W 090°58'2 3.9
2018-Feb-23 17:30N 32°21' W 090°56'2 3.2
2018-Feb-23 17:00N 32°19' W 090°54'2 3.4
2018-Feb-23 16:30N 32°18' W 090°55'2 3.2
2018-Feb-23 16:01N 32°17' W 090°57'2 3.9
2018-Feb-23 15:30N 32°16' W 090°58'2 4.1
2018-Feb-23 15:00N 32°14' W 090°59'2 3.1
2018-Feb-23 14:31N 32°12' W 090°59'2 3.6
2018-Feb-23 14:00N 32°10' W 090°60'2 3.6
2018-Feb-23 13:30N 32°09' W 091°00'2 3.4
2018-Feb-23 13:01N 32°07' W 091°01'2 3.4
2018-Feb-23 12:19N 32°08' W 091°04'1 0.5
2018-Feb-23 10:32N 32°08' W 091°05'0 3.1
2018-Feb-23 10:28N 32°08' W 091°05'1 2.9
2018-Feb-23 10:00N 32°07' W 091°06'3 4.3
2018-Feb-23 09:16N 32°05' W 091°04'1 3.9
2018-Feb-23 09:01N 32°04' W 091°04'2 3.6
2018-Feb-23 08:30N 32°02' W 091°04'2 4.5
2018-Feb-23 07:58N 31°60' W 091°06'5 3.6
2018-Feb-23 06:41N 31°58' W 091°11'1 3.5
2018-Feb-23 06:30N 31°58' W 091°11'  
2018-Feb-17 12:03N 31°57' W 091°11'1 8.5
2018-Feb-17 11:53N 31°59' W 091°11'5 8.8
2018-Feb-17 11:22N 31°60' W 091°05'5 8.9
2018-Feb-17 10:51N 32°04' W 091°04'3 9.3
2018-Feb-17 10:29N 32°07' W 091°06'2 3.1
2018-Feb-17 09:57N 32°08' W 091°05'4 8.5
2018-Feb-17 09:30N 32°08' W 091°01'5 9.9
2018-Feb-17 09:01N 32°13' W 090°59'5 9.1
2018-Feb-17 08:30N 32°17' W 090°57'4 8.3
2018-Feb-17 08:01N 32°20' W 090°54'4 9.0
2018-Feb-17 07:31N 32°21' W 090°60'4 7.9
2018-Feb-17 07:00N 32°25' W 091°00'5 9.3
2018-Feb-17 06:30N 32°27' W 091°05'4 8.6
2018-Feb-17 06:00N 32°31' W 091°06'4 8.3
2018-Feb-17 05:30N 32°35' W 091°08'  

Dump ship's entire track history